createdAt,value
2023-05-16T00:01:37.804Z,15.37
2023-05-16T00:04:07.552Z,15.44
2023-05-16T00:06:36.186Z,15.41
2023-05-16T00:09:04.108Z,15.32
2023-05-16T00:11:31.908Z,15.23
2023-05-16T00:14:01.407Z,15.14
2023-05-16T00:16:30.065Z,15.17
2023-05-16T00:18:59.899Z,15.11
2023-05-16T00:21:29.250Z,14.99
2023-05-16T00:23:57.041Z,14.98
2023-05-16T00:26:24.754Z,15.02
2023-05-16T00:28:52.570Z,15.03
2023-05-16T00:31:20.620Z,15.09
2023-05-16T00:33:48.416Z,14.97
2023-05-16T00:36:16.109Z,14.96
2023-05-16T00:38:45.195Z,15.06
2023-05-16T00:41:13.096Z,14.97
2023-05-16T00:43:41.207Z,15.09
2023-05-16T00:46:09.084Z,15.15
2023-05-16T00:48:36.985Z,15.05
2023-05-16T00:51:09.217Z,15.05
2023-05-16T00:53:37.544Z,14.91
2023-05-16T00:56:07.531Z,15.12
2023-05-16T00:58:35.470Z,15.18
2023-05-16T01:01:04.077Z,15.11
2023-05-16T01:03:32.530Z,15.15
2023-05-16T01:06:01.020Z,15.14
2023-05-16T01:08:28.863Z,15.05
2023-05-16T01:11:03.833Z,15.08
2023-05-16T01:13:42.715Z,15.08
2023-05-16T01:16:17.347Z,15.11
2023-05-16T01:18:54.966Z,14.99
2023-05-16T01:21:43.617Z,14.86
2023-05-16T01:24:16.094Z,15.05
2023-05-16T01:26:47.695Z,15.04
2023-05-16T01:29:16.544Z,14.86
2023-05-16T01:31:44.383Z,14.92
2023-05-16T01:34:13.604Z,14.94
2023-05-16T01:36:49.225Z,14.90
2023-05-16T01:39:23.536Z,14.97
2023-05-16T01:42:02.150Z,14.91
2023-05-16T01:44:34.530Z,14.88
2023-05-16T01:47:05.731Z,14.76
2023-05-16T01:49:37.516Z,14.81
2023-05-16T01:52:10.300Z,14.84
2023-05-16T01:54:40.554Z,14.69
2023-05-16T01:57:10.664Z,14.71
2023-05-16T01:59:39.949Z,14.67
2023-05-16T02:02:07.753Z,14.54
2023-05-16T02:04:35.529Z,14.45
2023-05-16T02:07:03.379Z,14.49
2023-05-16T02:09:31.297Z,14.55
2023-05-16T02:12:00.340Z,14.53
2023-05-16T02:14:29.537Z,14.55
2023-05-16T02:16:57.421Z,14.54
2023-05-16T02:19:25.216Z,14.38
2023-05-16T02:21:52.965Z,14.33
2023-05-16T02:24:21.215Z,14.33
2023-05-16T02:26:49.044Z,14.31
2023-05-16T02:29:17.051Z,14.29
2023-05-16T02:31:46.347Z,14.30
2023-05-16T02:34:14.132Z,14.23
2023-05-16T02:36:43.410Z,14.22
2023-05-16T02:39:11.343Z,14.20
2023-05-16T02:41:39.096Z,14.08
2023-05-16T02:44:06.832Z,14.16
2023-05-16T02:46:35.807Z,14.24
2023-05-16T02:49:06.443Z,14.19
2023-05-16T02:51:34.208Z,14.14
2023-05-16T02:54:01.938Z,14.05
2023-05-16T02:56:29.975Z,14.11
2023-05-16T02:58:57.697Z,14.04
2023-05-16T03:01:25.516Z,14.00
2023-05-16T03:03:53.465Z,14.13
2023-05-16T03:06:23.008Z,14.10
2023-05-16T03:08:50.723Z,14.12
2023-05-16T03:11:20.851Z,14.19
2023-05-16T03:13:48.631Z,13.95
2023-05-16T03:16:16.729Z,14.13
2023-05-16T03:18:44.767Z,14.19
2023-05-16T03:21:12.542Z,14.20
2023-05-16T03:23:41.655Z,14.16
2023-05-16T03:26:09.413Z,14.12
2023-05-16T03:28:38.208Z,14.12
2023-05-16T03:31:06.301Z,14.07
2023-05-16T03:33:34.116Z,14.08
2023-05-16T03:36:02.687Z,14.12
2023-05-16T03:38:30.775Z,14.01
2023-05-16T03:40:59.958Z,14.08
2023-05-16T03:43:27.728Z,14.05
2023-05-16T03:45:55.966Z,13.88
2023-05-16T03:48:23.951Z,13.98
2023-05-16T03:50:52.302Z,13.86
2023-05-16T03:53:20.101Z,13.83
2023-05-16T03:55:48.855Z,13.92
2023-05-16T03:58:18.200Z,13.84
2023-05-16T04:00:46.836Z,13.77
2023-05-16T04:03:14.852Z,13.76
2023-05-16T04:05:42.769Z,13.78
2023-05-16T04:08:10.652Z,13.52
2023-05-16T04:10:38.553Z,13.79
2023-05-16T04:13:06.480Z,13.81
2023-05-16T04:15:35.648Z,13.86
2023-05-16T04:18:05.126Z,13.60
2023-05-16T04:20:33.204Z,13.77
2023-05-16T04:23:01.085Z,13.68
2023-05-16T04:25:29.187Z,13.77
2023-05-16T04:27:57.337Z,13.79
2023-05-16T04:30:25.136Z,13.73
2023-05-16T04:32:54.250Z,13.79
2023-05-16T04:35:23.037Z,13.58
2023-05-16T04:37:51.173Z,13.65
2023-05-16T04:40:18.950Z,13.60
2023-05-16T04:42:46.764Z,13.53
2023-05-16T04:45:14.662Z,13.56
2023-05-16T04:47:42.417Z,13.53
2023-05-16T04:50:12.185Z,13.51
2023-05-16T04:52:39.856Z,13.58
2023-05-16T04:55:08.507Z,13.54
2023-05-16T04:57:36.505Z,13.45
2023-05-16T05:00:08.901Z,13.45
2023-05-16T05:02:36.713Z,13.42
2023-05-16T05:05:04.945Z,13.48
2023-05-16T05:07:34.180Z,13.50
2023-05-16T05:10:02.082Z,13.46
2023-05-16T05:12:29.876Z,13.45
2023-05-16T05:14:57.605Z,13.47
2023-05-16T05:17:25.482Z,13.40
2023-05-16T05:19:53.405Z,13.48
2023-05-16T05:22:21.168Z,13.45
2023-05-16T05:24:50.242Z,13.52
2023-05-16T05:27:17.994Z,13.52
2023-05-16T05:29:45.856Z,13.46
2023-05-16T05:32:14.088Z,13.46
2023-05-16T05:34:41.923Z,13.42
2023-05-16T05:37:09.810Z,13.39
2023-05-16T05:39:37.641Z,13.36
2023-05-16T05:42:07.441Z,13.48
2023-05-16T05:44:35.178Z,13.47
2023-05-16T05:47:03.028Z,13.48
2023-05-16T05:49:31.302Z,13.51
2023-05-16T05:51:59.082Z,13.55
2023-05-16T05:54:26.899Z,13.53
2023-05-16T05:56:54.631Z,13.61
2023-05-16T05:59:23.708Z,13.54
2023-05-16T06:01:52.849Z,13.63
2023-05-16T06:04:21.054Z,13.66
2023-05-16T06:06:49.018Z,13.63
2023-05-16T06:09:16.798Z,13.61
2023-05-16T06:11:45.932Z,13.58
2023-05-16T06:14:15.180Z,13.61
2023-05-16T06:16:44.847Z,13.68
2023-05-16T06:19:16.031Z,13.60
2023-05-16T06:21:44.361Z,13.61
2023-05-16T06:24:12.446Z,13.62
2023-05-16T06:26:40.431Z,13.61
2023-05-16T06:29:08.211Z,13.68
2023-05-16T06:31:36.007Z,13.61
2023-05-16T06:34:05.219Z,13.68
2023-05-16T06:36:33.165Z,13.77
2023-05-16T06:39:00.983Z,13.84
2023-05-16T06:41:28.857Z,13.85
2023-05-16T06:43:56.601Z,13.79
2023-05-16T06:46:24.472Z,13.83
2023-05-16T06:48:52.326Z,13.86
2023-05-16T06:51:21.458Z,13.90
2023-05-16T06:53:49.236Z,13.87
2023-05-16T06:56:16.957Z,13.96
2023-05-16T06:58:44.827Z,13.97
2023-05-16T07:01:12.708Z,13.86
2023-05-16T07:03:40.555Z,13.99
2023-05-16T07:06:09.149Z,13.93
2023-05-16T07:08:38.317Z,13.91
2023-05-16T07:11:06.384Z,13.87
2023-05-16T07:13:35.925Z,13.77
2023-05-16T07:16:04.259Z,13.75
2023-05-16T07:18:32.174Z,13.67
2023-05-16T07:20:59.975Z,13.70
2023-05-16T07:23:27.930Z,13.76
2023-05-16T07:25:57.182Z,13.87
2023-05-16T07:28:25.100Z,13.92
2023-05-16T07:30:52.853Z,13.93
2023-05-16T07:33:20.693Z,13.96
2023-05-16T07:35:48.563Z,14.02
2023-05-16T07:38:16.339Z,14.08
2023-05-16T07:40:44.302Z,14.12
2023-05-16T07:43:13.516Z,14.21
2023-05-16T07:45:41.522Z,14.23
2023-05-16T07:48:09.903Z,14.25
2023-05-16T07:50:37.683Z,14.27
2023-05-16T07:53:05.757Z,14.25
2023-05-16T07:55:33.615Z,14.28
2023-05-16T07:58:01.492Z,14.25
2023-05-16T08:00:30.918Z,14.31
2023-05-16T08:02:59.080Z,14.31
2023-05-16T08:05:27.266Z,14.32
2023-05-16T08:07:55.296Z,14.25
2023-05-16T08:10:23.339Z,14.20
2023-05-16T08:12:51.208Z,14.28
2023-05-16T08:15:19.269Z,14.18
2023-05-16T08:17:51.389Z,14.39
2023-05-16T08:20:19.510Z,14.40
2023-05-16T08:22:47.265Z,14.31
2023-05-16T08:25:15.158Z,14.47
2023-05-16T08:27:42.975Z,14.41
2023-05-16T08:30:12.078Z,14.57
2023-05-16T08:32:40.032Z,14.72
2023-05-16T08:35:11.000Z,14.78
2023-05-16T08:37:38.941Z,14.80
2023-05-16T08:40:10.851Z,14.88
2023-05-16T08:42:39.162Z,14.94
2023-05-16T08:45:08.700Z,14.95
2023-05-16T08:47:41.437Z,14.88
2023-05-16T08:50:11.666Z,14.95
2023-05-16T08:52:40.456Z,14.85
2023-05-16T08:55:11.981Z,14.84
2023-05-16T08:57:40.525Z,14.77
2023-05-16T09:00:12.223Z,14.83
2023-05-16T09:02:41.163Z,14.78
2023-05-16T09:05:12.512Z,14.72
2023-05-16T09:07:40.594Z,14.66
2023-05-16T09:10:09.511Z,14.76
2023-05-16T09:12:37.971Z,14.63
2023-05-16T09:15:08.310Z,14.71
2023-05-16T09:17:39.915Z,14.85
2023-05-16T09:20:15.797Z,14.77
2023-05-16T09:22:52.744Z,14.65
2023-05-16T09:25:30.349Z,14.70
2023-05-16T09:28:01.153Z,14.68
2023-05-16T09:30:31.036Z,14.55
2023-05-16T09:32:59.697Z,14.67
2023-05-16T09:37:59.853Z,14.88
2023-05-16T09:40:27.654Z,14.89
2023-05-16T09:43:03.715Z,15.01
2023-05-16T09:45:31.882Z,15.07
2023-05-16T09:48:05.555Z,15.14
2023-05-16T09:50:36.289Z,15.21
2023-05-16T09:53:04.798Z,15.32
2023-05-16T09:55:33.602Z,15.48
2023-05-16T09:58:01.483Z,15.66
2023-05-16T10:00:32.083Z,15.78
2023-05-16T10:03:04.290Z,15.71
2023-05-16T10:05:35.785Z,15.79
2023-05-16T10:08:05.280Z,15.97
2023-05-16T10:10:37.435Z,15.99
2023-05-16T10:13:08.008Z,15.96
2023-05-16T10:15:43.458Z,15.89
2023-05-16T10:18:13.470Z,15.93
2023-05-16T10:20:43.933Z,16.08
2023-05-16T10:23:17.133Z,16.16
2023-05-16T10:25:46.424Z,16.22
2023-05-16T10:28:14.550Z,16.30
2023-05-16T10:30:44.233Z,16.33
2023-05-16T10:33:13.396Z,16.51
2023-05-16T10:35:43.217Z,16.67
2023-05-16T10:38:12.568Z,16.46
2023-05-16T10:40:41.732Z,16.69
2023-05-16T10:43:10.496Z,17.48
2023-05-16T10:45:42.977Z,17.59
2023-05-16T10:48:15.388Z,17.33
2023-05-16T10:50:45.902Z,16.87
2023-05-16T10:53:16.232Z,16.85
2023-05-16T10:55:52.233Z,16.92
2023-05-16T10:58:25.184Z,16.72
2023-05-16T11:01:21.641Z,16.54
2023-05-16T11:04:10.332Z,16.38
2023-05-16T11:06:53.071Z,16.30
2023-05-16T11:09:23.714Z,16.44
2023-05-16T11:12:02.957Z,17.17
2023-05-16T11:14:38.259Z,17.76
2023-05-16T11:17:09.541Z,18.32
2023-05-16T11:19:42.660Z,18.32
2023-05-16T11:22:23.187Z,18.11
2023-05-16T11:24:53.887Z,17.59
2023-05-16T11:27:27.925Z,17.67
2023-05-16T11:29:57.719Z,17.51
2023-05-16T11:32:26.600Z,17.29
2023-05-16T11:34:55.483Z,17.04
2023-05-16T11:37:24.874Z,16.75
2023-05-16T11:39:52.839Z,16.72
2023-05-16T11:42:20.733Z,16.70
2023-05-16T11:44:48.547Z,16.86
2023-05-16T11:47:16.456Z,17.47
2023-05-16T11:49:44.438Z,17.78
2023-05-16T11:52:12.263Z,17.86
2023-05-16T11:54:42.396Z,17.93
2023-05-16T11:57:10.431Z,17.90
2023-05-16T11:59:38.504Z,18.15
2023-05-16T12:02:07.016Z,18.66
2023-05-16T12:04:35.134Z,19.61
2023-05-16T12:07:03.950Z,20.22
2023-05-16T12:09:31.786Z,20.73
2023-05-16T12:12:01.068Z,20.50
2023-05-16T12:14:28.963Z,20.88
2023-05-16T12:16:57.036Z,20.29
2023-05-16T12:19:25.378Z,20.53
2023-05-16T12:21:54.717Z,20.95
2023-05-16T12:24:22.686Z,20.31
2023-05-16T12:26:50.625Z,20.72
2023-05-16T12:29:25.067Z,20.13
2023-05-16T12:31:54.701Z,19.38
2023-05-16T12:34:23.252Z,18.72
2023-05-16T12:36:54.770Z,18.56
2023-05-16T12:39:23.518Z,18.20
2023-05-16T12:41:51.486Z,17.98
2023-05-16T12:44:23.505Z,17.93
2023-05-16T12:46:52.739Z,17.80
2023-05-16T12:49:22.097Z,17.86
2023-05-16T12:51:51.014Z,17.82
2023-05-16T12:54:18.957Z,17.63
2023-05-16T12:56:46.896Z,18.08
2023-05-16T12:59:14.712Z,18.13
2023-05-16T13:01:45.925Z,19.10
2023-05-16T13:04:16.794Z,20.02
2023-05-16T13:06:58.273Z,20.92
2023-05-16T13:09:32.082Z,21.63
2023-05-16T13:12:00.608Z,22.00
2023-05-16T13:14:28.604Z,22.38
2023-05-16T13:16:57.770Z,22.49
2023-05-16T13:19:25.988Z,22.57
2023-05-16T13:21:53.986Z,22.67
2023-05-16T13:24:21.742Z,21.77
2023-05-16T13:26:49.634Z,22.21
2023-05-16T13:29:17.442Z,22.00
2023-05-16T13:31:45.452Z,21.99
2023-05-16T13:34:14.837Z,22.29
2023-05-16T13:36:53.865Z,21.96
2023-05-16T13:39:22.170Z,22.35
2023-05-16T13:41:50.264Z,22.58
2023-05-16T13:44:18.052Z,22.93
2023-05-16T13:46:45.946Z,22.20
2023-05-16T13:49:15.124Z,22.79
2023-05-16T13:51:42.904Z,22.69
2023-05-16T13:54:10.718Z,21.64
2023-05-16T13:56:38.756Z,21.52
2023-05-16T13:59:07.445Z,22.13
2023-05-16T14:01:36.528Z,22.45
2023-05-16T14:04:04.881Z,22.69
2023-05-16T14:06:34.504Z,22.86
2023-05-16T14:09:03.344Z,22.87
2023-05-16T14:11:31.374Z,22.87
2023-05-16T14:13:59.571Z,22.89
2023-05-16T14:16:27.685Z,22.65
2023-05-16T14:18:55.539Z,22.23
2023-05-16T14:21:23.363Z,22.67
2023-05-16T14:23:52.512Z,22.27
2023-05-16T14:26:22.708Z,21.59
2023-05-16T14:28:50.779Z,20.96
2023-05-16T14:31:18.976Z,20.52
2023-05-16T14:33:46.836Z,20.69
2023-05-16T14:36:14.777Z,20.72
2023-05-16T14:38:42.744Z,20.42
2023-05-16T14:41:11.871Z,20.17
2023-05-16T14:43:39.676Z,19.93
2023-05-16T14:46:07.485Z,19.64
2023-05-16T14:48:35.285Z,19.45
2023-05-16T14:51:03.073Z,19.28
2023-05-16T14:53:30.828Z,19.10
2023-05-16T14:55:58.618Z,18.97
2023-05-16T14:58:28.824Z,19.00
2023-05-16T15:00:56.923Z,18.89
2023-05-16T15:03:24.912Z,19.03
2023-05-16T15:05:53.474Z,19.40
2023-05-16T15:08:22.294Z,19.54
2023-05-16T15:10:50.136Z,19.32
2023-05-16T15:13:18.019Z,19.23
2023-05-16T15:15:56.293Z,19.24
2023-05-16T15:18:26.893Z,19.10
2023-05-16T15:20:54.689Z,18.94
2023-05-16T15:23:22.444Z,18.81
2023-05-16T15:25:52.259Z,18.71
2023-05-16T15:28:22.366Z,18.60
2023-05-16T15:30:52.079Z,18.54
2023-05-16T15:33:19.846Z,18.46
2023-05-16T15:35:48.460Z,18.43
2023-05-16T15:38:16.361Z,18.29
2023-05-16T15:40:44.201Z,18.25
2023-05-16T15:43:11.999Z,18.31
2023-05-16T15:45:40.596Z,18.47
2023-05-16T15:48:09.988Z,18.64
2023-05-16T15:50:37.830Z,18.67
2023-05-16T15:53:05.827Z,18.55
2023-05-16T15:55:33.618Z,18.48
2023-05-16T15:58:01.424Z,18.35
2023-05-16T16:00:29.196Z,18.29
2023-05-16T16:02:56.984Z,18.21
2023-05-16T16:05:26.277Z,18.12
2023-05-16T16:07:54.148Z,18.11
2023-05-16T16:10:22.726Z,18.12
2023-05-16T16:13:01.188Z,18.24
2023-05-16T16:15:32.617Z,18.11
2023-05-16T16:18:01.275Z,18.15
2023-05-16T16:20:30.511Z,18.17
2023-05-16T16:22:58.750Z,18.15
2023-05-16T16:25:26.893Z,18.23
2023-05-16T16:27:54.870Z,18.31
2023-05-16T16:30:22.707Z,18.28
2023-05-16T16:32:50.608Z,18.09
2023-05-16T16:35:18.637Z,18.09
2023-05-16T16:37:54.816Z,18.02
2023-05-16T16:40:33.313Z,17.91
2023-05-16T16:43:01.339Z,17.86
2023-05-16T16:45:29.543Z,17.87
2023-05-16T16:47:58.042Z,17.76
2023-05-16T16:50:26.313Z,17.70
2023-05-16T16:52:55.543Z,17.66
2023-05-16T16:55:23.316Z,17.63
2023-05-16T16:57:51.146Z,17.53
2023-05-16T17:00:19.807Z,17.52
2023-05-16T17:02:47.637Z,17.47
2023-05-16T17:05:15.828Z,17.40
2023-05-16T17:07:44.553Z,17.36
2023-05-16T17:10:13.715Z,17.31
2023-05-16T17:12:48.920Z,17.21
2023-05-16T17:15:17.336Z,17.15
2023-05-16T17:17:45.728Z,17.08
2023-05-16T17:20:14.143Z,17.11
2023-05-16T17:22:42.030Z,16.92
2023-05-16T17:25:10.846Z,16.97
2023-05-16T17:27:40.751Z,16.86
2023-05-16T17:30:10.467Z,16.79
2023-05-16T17:32:39.834Z,16.89
2023-05-16T17:35:08.078Z,16.96
2023-05-16T17:37:35.886Z,16.97
2023-05-16T17:40:05.972Z,16.98
2023-05-16T17:42:33.850Z,16.97
2023-05-16T17:45:04.749Z,16.94
2023-05-16T17:47:33.135Z,16.92
2023-05-16T17:50:01.194Z,16.91
2023-05-16T17:52:29.373Z,16.82
2023-05-16T17:54:57.201Z,16.83
2023-05-16T17:57:25.060Z,16.78
2023-05-16T17:59:53.015Z,16.72
2023-05-16T18:02:22.220Z,16.68
2023-05-16T18:04:50.108Z,16.64
2023-05-16T18:07:17.935Z,16.62
2023-05-16T18:09:45.949Z,16.64
2023-05-16T18:12:13.949Z,16.68
2023-05-16T18:14:44.494Z,16.65
2023-05-16T18:17:16.328Z,16.60
2023-05-16T18:19:52.761Z,16.67
2023-05-16T18:22:20.995Z,16.53
2023-05-16T18:24:51.257Z,16.50
2023-05-16T18:27:28.149Z,16.51
2023-05-16T18:29:58.343Z,16.45
2023-05-16T18:32:26.611Z,16.48
2023-05-16T18:34:57.348Z,16.48
2023-05-16T18:37:25.411Z,16.47
2023-05-16T18:39:57.375Z,16.46
2023-05-16T18:42:25.836Z,16.42
2023-05-16T18:44:56.587Z,16.36
2023-05-16T18:47:30.795Z,16.39
2023-05-16T18:50:00.271Z,16.36
2023-05-16T18:52:34.284Z,16.28
2023-05-16T18:55:02.018Z,16.32
2023-05-16T18:57:29.888Z,16.27
2023-05-16T18:59:58.242Z,16.22
2023-05-16T19:02:37.964Z,16.24
2023-05-16T19:05:11.454Z,16.16
2023-05-16T19:07:39.390Z,16.08
2023-05-16T19:10:08.955Z,16.11
2023-05-16T19:12:36.745Z,16.08
2023-05-16T19:15:05.096Z,16.05
2023-05-16T19:17:33.011Z,16.09
2023-05-16T19:20:01.767Z,16.02
2023-05-16T19:22:31.045Z,16.06
2023-05-16T19:24:58.860Z,16.05
2023-05-16T19:27:26.752Z,16.05
2023-05-16T19:29:54.537Z,16.03
2023-05-16T19:32:22.362Z,15.97
2023-05-16T19:34:50.324Z,15.90
2023-05-16T19:37:21.301Z,15.97
2023-05-16T19:39:50.477Z,15.96
2023-05-16T19:42:18.267Z,15.85
2023-05-16T19:44:47.246Z,16.02
2023-05-16T19:47:15.061Z,16.00
2023-05-16T19:49:44.089Z,16.01
2023-05-16T19:52:13.248Z,15.99
2023-05-16T19:54:41.333Z,16.02
2023-05-16T19:57:19.300Z,16.03
2023-05-16T19:59:48.659Z,15.97
2023-05-16T20:02:17.370Z,15.98
2023-05-16T20:04:46.065Z,15.99
2023-05-16T20:07:13.903Z,15.98
2023-05-16T20:09:43.444Z,16.03
2023-05-16T20:12:13.084Z,15.99
2023-05-16T20:14:42.081Z,15.97
2023-05-16T20:17:13.609Z,15.92
2023-05-16T20:19:43.893Z,15.91
2023-05-16T20:22:12.112Z,15.90
2023-05-16T20:24:39.951Z,15.70
2023-05-16T20:27:07.718Z,15.87
2023-05-16T20:29:36.927Z,15.92
2023-05-16T20:32:05.133Z,15.87
2023-05-16T20:34:32.954Z,15.88
2023-05-16T20:37:00.869Z,15.85
2023-05-16T20:39:28.943Z,15.62
2023-05-16T20:41:56.725Z,15.78
2023-05-16T20:44:28.908Z,15.78
2023-05-16T20:47:03.757Z,15.77
2023-05-16T20:49:31.596Z,15.72
2023-05-16T20:51:59.614Z,15.73
2023-05-16T20:54:29.348Z,15.65
2023-05-16T20:56:57.212Z,15.65
2023-05-16T20:59:25.085Z,15.65
2023-05-16T21:01:53.291Z,15.43
2023-05-16T21:04:22.541Z,15.56
2023-05-16T21:06:50.375Z,15.57
2023-05-16T21:09:18.260Z,15.56
2023-05-16T21:11:46.139Z,15.51
2023-05-16T21:14:14.087Z,15.44
2023-05-16T21:16:42.233Z,15.23
2023-05-16T21:19:10.189Z,15.36
2023-05-16T21:21:39.395Z,15.38
2023-05-16T21:24:10.490Z,15.36
2023-05-16T21:26:38.399Z,15.36
2023-05-16T21:29:06.692Z,15.29
2023-05-16T21:31:36.309Z,15.36
2023-05-16T21:34:04.245Z,15.36
2023-05-16T21:36:32.297Z,15.31
2023-05-16T21:39:04.594Z,15.08
2023-05-16T21:41:32.601Z,15.30
2023-05-16T21:44:00.431Z,15.28
2023-05-16T21:46:28.260Z,15.26
2023-05-16T21:48:57.805Z,15.23
2023-05-16T21:51:30.554Z,15.23
2023-05-16T21:54:03.191Z,14.98
2023-05-16T21:56:31.368Z,14.99
2023-05-16T21:58:59.225Z,15.10
2023-05-16T22:01:28.675Z,15.05
2023-05-16T22:03:57.369Z,15.08
2023-05-16T22:06:30.246Z,15.06
2023-05-16T22:08:58.496Z,15.03
2023-05-16T22:11:28.911Z,14.98
2023-05-16T22:13:56.808Z,14.82
2023-05-16T22:16:24.685Z,14.87
2023-05-16T22:18:52.823Z,14.82
2023-05-16T22:21:23.596Z,14.81
2023-05-16T22:23:54.717Z,14.74
2023-05-16T22:26:22.466Z,14.71
2023-05-16T22:28:51.604Z,14.72
2023-05-16T22:31:19.447Z,14.66
2023-05-16T22:33:51.859Z,14.62
2023-05-16T22:36:19.883Z,14.28
2023-05-16T22:38:50.668Z,14.56
2023-05-16T22:41:18.517Z,14.54
2023-05-16T22:43:48.821Z,14.57
2023-05-16T22:46:19.738Z,14.52
2023-05-16T22:48:47.797Z,14.39
2023-05-16T22:51:21.877Z,14.44
2023-05-16T22:53:51.828Z,14.25
2023-05-16T22:56:21.712Z,14.33
2023-05-16T22:58:49.870Z,14.34
2023-05-16T23:01:19.032Z,14.35
2023-05-16T23:03:47.172Z,14.29
2023-05-16T23:06:16.261Z,14.23
2023-05-16T23:08:44.057Z,14.28
2023-05-16T23:11:12.305Z,14.27
2023-05-16T23:13:40.060Z,14.23
2023-05-16T23:16:08.109Z,14.23
2023-05-16T23:18:37.375Z,14.26
2023-05-16T23:21:05.338Z,14.20
2023-05-16T23:23:33.087Z,14.18
2023-05-16T23:26:00.841Z,14.18
2023-05-16T23:28:28.601Z,14.13
2023-05-16T23:30:56.384Z,13.98
2023-05-16T23:33:24.179Z,14.11
2023-05-16T23:35:53.319Z,14.13
2023-05-16T23:38:22.304Z,14.07
2023-05-16T23:40:50.000Z,14.05
2023-05-16T23:43:17.751Z,14.01
2023-05-16T23:45:45.820Z,13.99
2023-05-16T23:48:13.777Z,13.92
2023-05-16T23:50:41.763Z,13.94
2023-05-16T23:53:10.956Z,13.94
2023-05-16T23:55:38.821Z,13.89
2023-05-16T23:58:06.740Z,13.85
